Time;durP1;ratioP1;P1;durP2;ratioP2;P2;SDS_P1;SDS_P2;PMS_P1;PMS_P2;Temp;Humidity;BMP_temperature;BMP_pressure;BME280_temperature;BME280_humidity;BME280_pressure;Samples;Min_cycle;Max_cycle;Signal;HPM_P1;HPM_P2
2024/04/03 00:00:35;;;;;;;9.23;2.63;;;11.00;99.90;;;;;;803686;176;26601;-86
2024/04/03 00:03:01;;;;;;;10.33;3.73;;;11.00;99.90;;;;;;802674;177;26458;-86
2024/04/03 00:05:28;;;;;;;9.80;4.13;;;11.00;99.90;;;;;;800540;178;26493;-86
2024/04/03 00:07:55;;;;;;;5.27;3.13;;;10.90;99.90;;;;;;806920;178;26480;-86
2024/04/03 00:10:22;;;;;;;6.43;2.60;;;10.90;99.90;;;;;;799066;178;26624;-85
2024/04/03 00:12:49;;;;;;;9.70;3.40;;;10.90;99.90;;;;;;800724;177;26441;-85
2024/04/03 00:15:15;;;;;;;8.00;3.10;;;10.90;99.90;;;;;;798909;178;26425;-86
2024/04/03 00:17:42;;;;;;;6.33;2.73;;;10.80;99.90;;;;;;798104;177;26453;-86
2024/04/03 00:20:09;;;;;;;8.57;3.73;;;10.80;99.90;;;;;;798457;178;26474;-85
2024/04/03 00:22:35;;;;;;;9.67;4.23;;;10.80;99.90;;;;;;803463;177;26439;-84
2024/04/03 00:25:02;;;;;;;30.23;16.63;;;10.80;99.90;;;;;;812728;176;26449;-85
2024/04/03 00:27:29;;;;;;;7.53;2.90;;;10.80;99.90;;;;;;803426;177;26410;-85
2024/04/03 00:29:56;;;;;;;9.23;3.00;;;10.80;99.90;;;;;;797653;179;26500;-85
2024/04/03 00:32:23;;;;;;;4.83;2.90;;;10.90;99.90;;;;;;792859;178;26466;-86
2024/04/03 00:34:52;;;;;;;7.73;2.80;;;10.80;99.90;;;;;;805421;176;28028;-86
2024/04/03 00:37:19;;;;;;;9.87;4.23;;;10.80;99.90;;;;;;807224;177;26419;-86
2024/04/03 00:39:45;;;;;;;11.23;4.90;;;10.80;99.90;;;;;;808292;177;26999;-86
2024/04/03 00:42:12;;;;;;;68.57;27.37;;;10.80;99.90;;;;;;801145;177;26451;-86
2024/04/03 00:44:39;;;;;;;8.40;3.47;;;10.70;99.90;;;;;;800816;177;26431;-83
2024/04/03 00:47:06;;;;;;;8.60;3.90;;;10.70;99.90;;;;;;793768;178;26427;-84
2024/04/03 00:49:32;;;;;;;5.77;2.60;;;10.70;99.90;;;;;;798939;178;26459;-84
2024/04/03 00:51:59;;;;;;;7.40;2.83;;;10.70;99.90;;;;;;796390;178;26446;-85
2024/04/03 00:54:26;;;;;;;9.57;3.40;;;10.70;99.90;;;;;;801680;178;26985;-85
2024/04/03 00:56:53;;;;;;;11.23;3.20;;;10.60;99.90;;;;;;795709;178;26440;-85
2024/04/03 00:59:19;;;;;;;12.20;3.43;;;10.60;99.90;;;;;;798637;177;26445;-85
2024/04/03 01:01:46;;;;;;;8.27;3.70;;;10.60;99.90;;;;;;800340;177;26459;-85
2024/04/03 01:04:13;;;;;;;10.13;3.50;;;10.60;99.90;;;;;;803501;178;26418;-86
2024/04/03 01:06:39;;;;;;;15.37;5.23;;;10.60;99.90;;;;;;809484;177;26430;-85
2024/04/03 01:09:06;;;;;;;15.37;7.27;;;10.60;99.90;;;;;;794679;177;26420;-84
2024/04/03 01:11:33;;;;;;;11.73;3.60;;;10.60;99.90;;;;;;801048;178;26450;-84
2024/04/03 01:13:59;;;;;;;14.27;3.43;;;10.60;99.90;;;;;;796610;176;26423;-86
2024/04/03 01:16:26;;;;;;;7.47;2.93;;;10.60;99.90;;;;;;798714;177;26447;-86
2024/04/03 01:18:53;;;;;;;9.20;3.43;;;10.60;99.90;;;;;;796509;178;26460;-86
2024/04/03 01:21:20;;;;;;;14.70;6.27;;;10.60;99.90;;;;;;803612;177;27042;-84
2024/04/03 01:23:50;;;;;;;10.53;3.07;;;10.50;99.90;;;;;;799833;178;26988;-84
2024/04/03 01:26:17;;;;;;;8.10;3.30;;;10.50;99.90;;;;;;800639;178;26438;-85
2024/04/03 01:28:43;;;;;;;8.10;3.60;;;10.50;99.90;;;;;;799340;178;26418;-85
2024/04/03 01:31:10;;;;;;;10.57;3.70;;;10.50;99.90;;;;;;799213;173;26452;-82
2024/04/03 01:33:37;;;;;;;10.63;4.07;;;10.50;99.90;;;;;;758823;188;26493;-82
2024/04/03 01:36:04;;;;;;;9.73;3.13;;;10.50;99.90;;;;;;758096;187;26491;-83
2024/04/03 01:38:30;;;;;;;16.30;3.67;;;10.50;99.90;;;;;;756170;187;26508;-83
2024/04/03 01:40:57;;;;;;;12.87;3.93;;;10.50;99.90;;;;;;755179;187;26556;-82
2024/04/03 01:43:23;;;;;;;11.00;4.03;;;10.40;99.90;;;;;;749495;188;26524;-82
2024/04/03 01:45:56;;;;;;;10.10;3.87;;;10.40;99.90;;;;;;751760;190;26495;-83
2024/04/03 01:48:23;;;;;;;9.13;4.67;;;10.40;99.90;;;;;;752832;188;26488;-82
2024/04/03 01:50:49;;;;;;;9.77;4.47;;;10.40;99.90;;;;;;747995;189;26619;-83
2024/04/03 01:53:16;;;;;;;12.60;4.90;;;10.40;99.90;;;;;;752815;188;26537;-83
2024/04/03 01:55:48;;;;;;;14.43;4.67;;;10.30;99.90;;;;;;750232;188;26498;-83
2024/04/03 01:58:15;;;;;;;11.73;5.20;;;10.30;99.90;;;;;;752526;187;26514;-83
2024/04/03 02:00:41;;;;;;;14.73;5.40;;;10.40;99.90;;;;;;757048;190;26529;-83
2024/04/03 02:03:08;;;;;;;13.83;4.80;;;10.30;99.90;;;;;;747301;191;27043;-83
2024/04/03 02:05:35;;;;;;;9.40;4.90;;;10.40;99.90;;;;;;754297;190;26525;-83
2024/04/03 02:08:01;;;;;;;11.73;4.80;;;10.40;99.90;;;;;;750664;189;26490;-83
2024/04/03 02:10:29;;;;;;;17.30;6.60;;;10.40;99.90;;;;;;754015;189;26538;-82
2024/04/03 02:12:56;;;;;;;11.03;4.90;;;10.40;99.90;;;;;;753196;189;26518;-82
2024/04/03 02:15:22;;;;;;;9.63;4.60;;;10.30;99.90;;;;;;751685;190;26494;-82
2024/04/03 02:17:49;;;;;;;9.77;5.00;;;10.30;99.90;;;;;;754163;188;26524;-82
2024/04/03 02:20:16;;;;;;;16.20;4.93;;;10.40;99.90;;;;;;751506;188;26524;-81
2024/04/03 02:22:43;;;;;;;13.33;5.10;;;10.40;99.90;;;;;;752082;189;26491;-82
2024/04/03 02:25:10;;;;;;;10.47;5.17;;;10.30;99.90;;;;;;751742;186;26686;-82
2024/04/03 02:27:36;;;;;;;12.80;5.30;;;10.40;99.90;;;;;;751255;190;26670;-82
2024/04/03 02:30:03;;;;;;;12.10;5.30;;;10.40;99.90;;;;;;747964;190;27070;-82
2024/04/03 02:32:30;;;;;;;10.23;5.20;;;10.40;99.90;;;;;;746548;191;26628;-83
2024/04/03 02:34:56;;;;;;;11.13;5.33;;;10.40;99.90;;;;;;751411;190;26539;-82
2024/04/03 02:37:23;;;;;;;13.57;5.10;;;10.40;99.90;;;;;;752243;190;26536;-82
2024/04/03 02:39:50;;;;;;;15.87;5.27;;;10.40;99.90;;;;;;747964;189;26690;-82
2024/04/03 02:42:16;;;;;;;12.53;4.53;;;10.40;99.90;;;;;;753157;190;26550;-82
2024/04/03 02:44:43;;;;;;;9.93;4.30;;;10.40;99.90;;;;;;753486;189;26521;-82
2024/04/03 02:47:09;;;;;;;10.53;4.07;;;10.30;99.90;;;;;;751324;190;26491;-82
2024/04/03 02:49:36;;;;;;;13.47;4.33;;;10.30;99.90;;;;;;751105;190;27105;-82
2024/04/03 02:52:03;;;;;;;15.33;4.53;;;10.30;99.90;;;;;;752957;190;26534;-82
2024/04/03 02:54:29;;;;;;;16.43;4.50;;;10.20;99.90;;;;;;752839;190;27105;-83
2024/04/03 02:56:56;;;;;;;12.07;4.63;;;10.20;99.90;;;;;;752472;188;26504;-83
2024/04/03 02:59:23;;;;;;;14.00;4.83;;;10.20;99.90;;;;;;750912;190;26535;-83
2024/04/03 03:01:49;;;;;;;11.13;4.13;;;10.20;99.90;;;;;;754186;190;26638;-83
2024/04/03 03:04:16;;;;;;;13.27;4.47;;;10.20;99.90;;;;;;752974;189;26532;-83
2024/04/03 03:06:43;;;;;;;14.40;3.83;;;10.30;99.90;;;;;;750704;190;26481;-83
2024/04/03 03:09:09;;;;;;;8.93;3.90;;;10.20;99.90;;;;;;751828;190;26516;-83
2024/04/03 03:11:36;;;;;;;14.70;4.60;;;10.20;99.90;;;;;;750509;190;26668;-83
2024/04/03 03:14:04;;;;;;;11.60;4.70;;;10.20;99.90;;;;;;750710;190;26522;-83
2024/04/03 03:16:29;;;;;;;14.53;6.00;;;10.30;99.90;;;;;;752610;190;26521;-83
2024/04/03 03:18:56;;;;;;;12.93;4.40;;;10.30;99.90;;;;;;754138;189;26673;-83
2024/04/03 03:21:22;;;;;;;13.87;4.60;;;10.30;99.90;;;;;;756271;189;26498;-83
2024/04/03 03:23:49;;;;;;;9.10;4.53;;;10.30;99.90;;;;;;752485;188;27093;-83
2024/04/03 03:26:15;;;;;;;12.10;4.60;;;10.30;99.90;;;;;;754042;189;26687;-83
2024/04/03 03:28:42;;;;;;;11.63;4.63;;;10.30;99.90;;;;;;756229;189;26539;-83
2024/04/03 03:31:09;;;;;;;13.57;4.53;;;10.30;99.90;;;;;;752914;189;26544;-83
2024/04/03 03:33:37;;;;;;;13.73;5.83;;;10.30;99.90;;;;;;753177;185;26517;-83
2024/04/03 03:36:03;;;;;;;13.00;5.83;;;10.30;99.90;;;;;;756437;189;26507;-83
2024/04/03 03:38:29;;;;;;;16.70;6.10;;;10.30;99.90;;;;;;753208;189;26670;-83
2024/04/03 03:40:56;;;;;;;17.43;5.93;;;10.30;99.90;;;;;;755320;190;26537;-83
2024/04/03 03:43:23;;;;;;;19.63;6.97;;;10.30;99.90;;;;;;752770;190;26554;-83
2024/04/03 03:45:49;;;;;;;14.27;5.60;;;10.30;99.90;;;;;;756686;189;26564;-83
2024/04/03 03:48:16;;;;;;;11.30;5.00;;;10.30;99.90;;;;;;749707;189;26506;-83
2024/04/03 03:53:15;;;;;;;13.90;5.20;;;10.30;99.90;;;;;;752301;190;26507;-83
2024/04/03 03:55:41;;;;;;;14.00;5.70;;;10.30;99.90;;;;;;752025;190;26496;-82
2024/04/03 03:58:08;;;;;;;20.10;6.87;;;10.30;99.90;;;;;;750651;190;26529;-82
2024/04/03 04:00:34;;;;;;;18.07;8.03;;;10.20;99.90;;;;;;753686;190;26523;-83
2024/04/03 04:03:01;;;;;;;17.20;7.23;;;10.20;99.90;;;;;;751457;189;26513;-82
2024/04/03 04:05:28;;;;;;;17.30;6.93;;;10.20;99.90;;;;;;750868;190;26509;-82
2024/04/03 04:07:54;;;;;;;17.60;6.70;;;10.20;99.90;;;;;;753395;190;26508;-82
2024/04/03 04:10:21;;;;;;;21.50;7.20;;;10.20;99.90;;;;;;754757;190;26684;-82
2024/04/03 04:12:48;;;;;;;11.17;5.53;;;10.20;99.90;;;;;;751470;190;26535;-82
2024/04/03 04:15:14;;;;;;;14.50;6.90;;;10.20;99.90;;;;;;751637;188;26487;-82
2024/04/03 04:17:41;;;;;;;17.57;5.93;;;10.20;99.90;;;;;;756579;186;26520;-81
2024/04/03 04:20:08;;;;;;;16.67;7.57;;;10.20;99.90;;;;;;757992;188;26549;-81
2024/04/03 04:22:34;;;;;;;18.20;6.87;;;10.20;99.90;;;;;;757990;190;26495;-82
2024/04/03 04:25:01;;;;;;;19.27;5.70;;;10.20;99.90;;;;;;747380;190;26615;-82
2024/04/03 04:27:28;;;;;;;14.37;4.73;;;10.20;99.90;;;;;;751900;187;26527;-82
2024/04/03 04:29:54;;;;;;;18.43;5.30;;;10.20;99.90;;;;;;752455;189;26566;-82
2024/04/03 04:32:21;;;;;;;14.10;6.50;;;10.10;99.90;;;;;;755861;187;26498;-83
2024/04/03 04:34:47;;;;;;;15.53;4.97;;;10.10;99.90;;;;;;756642;189;26503;-82
2024/04/03 04:37:14;;;;;;;15.17;5.23;;;10.10;99.90;;;;;;753865;189;27107;-81
2024/04/03 04:39:41;;;;;;;17.70;5.20;;;10.10;99.90;;;;;;753422;188;26572;-80
2024/04/03 04:42:08;;;;;;;15.73;5.33;;;10.10;99.90;;;;;;746458;192;27033;-79
2024/04/03 04:44:34;;;;;;;12.90;5.27;;;10.10;99.90;;;;;;748450;191;26503;-80
2024/04/03 04:47:00;;;;;;;13.97;5.03;;;10.10;99.90;;;;;;752652;189;26855;-79
2024/04/03 04:49:27;;;;;;;13.50;5.00;;;10.10;99.90;;;;;;752944;188;27061;-79
2024/04/03 04:51:54;;;;;;;15.37;4.90;;;10.20;99.90;;;;;;752807;189;26540;-79
2024/04/03 04:54:22;;;;;;;19.87;5.00;;;10.10;99.90;;;;;;752957;189;27042;-79
2024/04/03 04:56:47;;;;;;;19.30;4.90;;;10.10;99.90;;;;;;752559;190;26522;-79
2024/04/03 04:59:14;;;;;;;18.33;5.53;;;10.10;99.90;;;;;;752810;191;26622;-79
2024/04/03 05:01:41;;;;;;;10.13;4.83;;;10.10;99.90;;;;;;752601;189;26495;-78
2024/04/03 05:04:07;;;;;;;17.57;6.20;;;10.10;99.90;;;;;;752870;188;26666;-78
2024/04/03 05:06:34;;;;;;;17.03;5.43;;;10.10;99.90;;;;;;752707;189;27105;-79
2024/04/03 05:09:02;;;;;;;11.63;5.27;;;10.10;99.90;;;;;;750313;189;26554;-79
2024/04/03 05:11:27;;;;;;;20.37;6.27;;;10.10;99.90;;;;;;751383;189;26643;-79
2024/04/03 05:13:54;;;;;;;16.67;5.13;;;10.10;99.90;;;;;;749499;190;26544;-80
2024/04/03 05:16:21;;;;;;;14.03;5.57;;;10.10;99.90;;;;;;757637;188;27077;-80
2024/04/03 05:18:47;;;;;;;15.47;5.10;;;10.20;99.90;;;;;;757634;188;26509;-80
2024/04/03 05:21:14;;;;;;;10.37;4.47;;;10.20;99.90;;;;;;750047;189;26520;-80
2024/04/03 05:23:42;;;;;;;8.20;3.97;;;10.10;99.90;;;;;;750480;190;26496;-81
2024/04/03 05:26:07;;;;;;;11.90;4.93;;;10.20;99.90;;;;;;750513;190;26516;-80
2024/04/03 05:28:35;;;;;;;10.73;5.10;;;10.20;99.90;;;;;;745703;191;26508;-80
2024/04/03 05:31:03;;;;;;;9.30;4.67;;;10.20;99.90;;;;;;754191;190;27070;-84
2024/04/03 05:33:28;;;;;;;13.67;5.20;;;10.20;99.90;;;;;;753321;189;28075;-83
2024/04/03 05:35:57;;;;;;;12.20;4.67;;;10.20;99.90;;;;;;752470;190;26519;-83
2024/04/03 05:38:23;;;;;;;15.40;4.80;;;10.20;99.90;;;;;;751382;190;26508;-83
2024/04/03 05:40:50;;;;;;;14.43;4.73;;;10.20;99.90;;;;;;753555;187;26536;-83
2024/04/03 05:43:17;;;;;;;17.30;5.07;;;10.20;99.90;;;;;;754705;189;28103;-83
2024/04/03 05:45:43;;;;;;;12.77;4.40;;;10.20;99.90;;;;;;757482;186;26522;-83
2024/04/03 05:48:10;;;;;;;21.43;5.83;;;10.20;99.90;;;;;;757624;189;26661;-84
2024/04/03 05:50:36;;;;;;;19.03;5.30;;;10.10;99.90;;;;;;754805;189;27958;-83
2024/04/03 05:53:03;;;;;;;18.13;5.10;;;10.20;99.90;;;;;;753943;189;26509;-83
2024/04/03 05:55:30;;;;;;;9.83;4.10;;;10.20;99.90;;;;;;754714;188;26502;-83
2024/04/03 05:57:56;;;;;;;11.53;5.07;;;10.20;99.90;;;;;;754397;189;26542;-83
2024/04/03 06:00:23;;;;;;;14.87;5.37;;;10.20;99.90;;;;;;754680;188;26558;-82
2024/04/03 06:02:50;;;;;;;14.00;5.17;;;10.20;99.90;;;;;;753315;188;26562;-83
2024/04/03 06:05:17;;;;;;;16.47;5.47;;;10.20;99.90;;;;;;751908;190;26524;-83
2024/04/03 06:07:45;;;;;;;15.03;5.10;;;10.20;99.90;;;;;;753135;188;27071;-82
2024/04/03 06:10:10;;;;;;;15.27;6.00;;;10.10;99.90;;;;;;755602;186;26523;-83
2024/04/03 06:12:36;;;;;;;13.37;5.43;;;10.20;99.90;;;;;;753405;186;26650;-83
2024/04/03 06:15:03;;;;;;;16.07;5.40;;;10.10;99.90;;;;;;751305;190;27034;-83
2024/04/03 06:17:29;;;;;;;16.97;5.73;;;10.10;99.90;;;;;;751357;190;26532;-84
2024/04/03 06:19:57;;;;;;;17.87;5.87;;;10.10;99.90;;;;;;746319;191;26541;-84
2024/04/03 06:22:23;;;;;;;16.93;5.50;;;10.20;99.90;;;;;;751602;190;26512;-84
2024/04/03 06:24:49;;;;;;;19.30;5.97;;;10.20;99.90;;;;;;755361;186;26500;-84
2024/04/03 06:27:16;;;;;;;14.07;5.50;;;10.20;99.90;;;;;;748432;190;26952;-83
2024/04/03 06:29:42;;;;;;;17.57;5.57;;;10.20;99.90;;;;;;750705;186;26540;-84
2024/04/03 06:32:09;;;;;;;15.27;5.63;;;10.20;99.90;;;;;;753421;189;26530;-83
2024/04/03 06:34:36;;;;;;;16.43;5.63;;;10.20;99.90;;;;;;751319;190;26681;-84
2024/04/03 06:37:02;;;;;;;14.87;4.80;;;10.20;99.90;;;;;;753839;190;26685;-84
2024/04/03 06:39:29;;;;;;;15.60;5.77;;;10.30;99.90;;;;;;750955;190;26528;-84
2024/04/03 06:41:56;;;;;;;14.33;5.30;;;10.30;99.90;;;;;;749431;190;27128;-84
2024/04/03 06:44:22;;;;;;;11.83;4.87;;;10.30;99.90;;;;;;750191;190;26500;-82
2024/04/03 06:46:49;;;;;;;13.10;4.73;;;10.30;99.90;;;;;;751960;189;26555;-81
2024/04/03 06:49:15;;;;;;;13.23;4.93;;;10.40;99.90;;;;;;753451;190;26689;-82
2024/04/03 06:51:42;;;;;;;16.17;4.30;;;10.40;99.90;;;;;;753560;190;27037;-83
2024/04/03 06:54:09;;;;;;;19.50;5.30;;;10.40;99.90;;;;;;755404;187;26518;-82
2024/04/03 06:56:35;;;;;;;10.67;4.20;;;10.40;99.90;;;;;;755772;188;26506;-82
2024/04/03 06:59:02;;;;;;;16.37;4.90;;;10.40;99.90;;;;;;755448;189;26500;-83
2024/04/03 07:01:29;;;;;;;11.17;4.17;;;10.40;99.90;;;;;;758286;188;26505;-83
2024/04/03 07:03:56;;;;;;;18.40;4.47;;;10.40;99.90;;;;;;754650;189;26479;-83
2024/04/03 07:06:22;;;;;;;16.03;5.10;;;10.40;99.90;;;;;;755846;189;26504;-82
2024/04/03 07:08:49;;;;;;;21.53;6.30;;;10.40;99.90;;;;;;754835;189;26498;-82
2024/04/03 07:11:16;;;;;;;16.73;5.37;;;10.40;99.90;;;;;;754950;189;26510;-83
2024/04/03 07:13:42;;;;;;;10.83;4.57;;;10.40;99.90;;;;;;756343;185;26660;-82
2024/04/03 07:16:09;;;;;;;9.03;4.30;;;10.40;99.90;;;;;;751593;190;26538;-83
2024/04/03 07:18:38;;;;;;;12.20;4.73;;;10.40;99.90;;;;;;751727;190;26505;-83
2024/04/03 07:21:04;;;;;;;11.20;4.70;;;10.40;99.90;;;;;;750469;190;26526;-83
2024/04/03 07:23:29;;;;;;;11.23;4.27;;;10.50;99.90;;;;;;756142;188;26499;-83
2024/04/03 07:25:55;;;;;;;13.67;4.27;;;10.50;99.90;;;;;;752346;189;27074;-83
2024/04/03 07:28:22;;;;;;;9.53;4.43;;;10.60;99.90;;;;;;753377;189;26656;-84
2024/04/03 07:30:48;;;;;;;11.30;3.80;;;10.80;99.90;;;;;;751169;190;26560;-84
2024/04/03 07:35:57;;;;;;;13.33;4.63;;;10.80;99.90;;;;;;801609;179;26429;-80
2024/04/03 07:38:42;;;;;;;12.20;4.40;;;10.80;99.90;;;;;;801131;177;26432;-79
2024/04/03 07:41:10;;;;;;;10.97;4.40;;;10.80;99.90;;;;;;799290;178;26457;-77
2024/04/03 07:43:39;;;;;;;11.60;3.63;;;10.90;99.90;;;;;;792372;180;26480;-77
2024/04/03 07:46:07;;;;;;;15.57;4.50;;;10.90;99.90;;;;;;795534;179;26468;-76
2024/04/03 07:48:49;;;;;;;11.87;4.10;;;10.80;99.90;;;;;;796972;179;26436;-78
2024/04/03 07:51:21;;;;;;;11.37;3.93;;;10.70;99.90;;;;;;800449;178;26553;-79
2024/04/03 07:53:47;;;;;;;11.40;4.20;;;10.80;99.90;;;;;;799018;179;26448;-79
2024/04/03 07:56:14;;;;;;;17.87;6.13;;;10.80;99.90;;;;;;796419;179;26447;-80
2024/04/03 07:58:41;;;;;;;16.40;4.03;;;10.90;99.90;;;;;;798114;180;26447;-79
2024/04/03 08:01:07;;;;;;;13.07;3.83;;;10.90;99.90;;;;;;800442;179;26427;-79
2024/04/03 08:03:34;;;;;;;10.37;3.90;;;11.00;99.90;;;;;;799343;180;26439;-78
2024/04/03 08:06:00;;;;;;;9.40;3.50;;;11.00;99.90;;;;;;801541;178;26431;-79
2024/04/03 08:08:28;;;;;;;11.20;3.50;;;11.10;99.90;;;;;;801413;179;26433;-80
2024/04/03 08:10:53;;;;;;;15.13;3.90;;;11.10;99.90;;;;;;797906;180;26429;-79
2024/04/03 08:13:20;;;;;;;12.93;4.17;;;11.20;99.90;;;;;;797653;178;26446;-79
2024/04/03 08:15:47;;;;;;;6.67;3.00;;;11.40;99.90;;;;;;800133;180;26430;-79
2024/04/03 08:18:13;;;;;;;10.00;4.10;;;11.50;99.90;;;;;;799762;178;26431;-78
2024/04/03 08:20:40;;;;;;;10.07;4.17;;;11.60;99.90;;;;;;798158;179;27005;-78
2024/04/03 08:23:06;;;;;;;8.57;3.30;;;11.70;99.90;;;;;;799579;180;26439;-81
2024/04/03 08:25:33;;;;;;;12.23;4.17;;;11.60;99.90;;;;;;799257;180;26425;-81
2024/04/03 08:28:00;;;;;;;7.33;2.90;;;11.60;99.90;;;;;;796264;180;26420;-79
2024/04/03 08:30:26;;;;;;;7.83;3.30;;;11.70;99.90;;;;;;799417;178;26417;-79
2024/04/03 08:32:54;;;;;;;7.40;3.23;;;11.60;99.90;;;;;;799421;179;26404;-79
2024/04/03 08:35:20;;;;;;;9.17;3.27;;;11.70;99.90;;;;;;800860;177;26422;-80
2024/04/03 08:37:47;;;;;;;6.97;3.50;;;11.60;99.90;;;;;;798895;180;26418;-79
2024/04/03 08:40:14;;;;;;;11.37;2.77;;;11.70;99.90;;;;;;801088;179;26445;-80
2024/04/03 08:42:40;;;;;;;9.30;3.10;;;11.70;99.90;;;;;;798783;180;26578;-79
2024/04/03 08:45:08;;;;;;;6.63;3.23;;;11.80;99.90;;;;;;796531;178;26466;-78
2024/04/03 08:47:34;;;;;;;8.10;3.60;;;11.90;99.90;;;;;;799520;179;26455;-80
2024/04/03 08:50:00;;;;;;;5.37;2.77;;;11.90;99.90;;;;;;798034;179;26426;-79
2024/04/03 08:52:27;;;;;;;12.23;3.90;;;11.80;99.90;;;;;;794882;180;26615;-79
2024/04/03 08:54:54;;;;;;;12.17;3.33;;;11.70;99.90;;;;;;801059;179;26446;-80
2024/04/03 08:57:20;;;;;;;9.87;3.60;;;11.60;99.90;;;;;;793730;180;26455;-79
2024/04/03 08:59:48;;;;;;;6.00;3.00;;;11.60;99.90;;;;;;797119;180;26470;-80
2024/04/03 09:02:14;;;;;;;7.60;3.37;;;11.70;99.90;;;;;;796626;179;26459;-79
2024/04/03 09:04:40;;;;;;;7.43;3.20;;;11.70;99.90;;;;;;798988;179;26424;-81
2024/04/03 09:07:08;;;;;;;12.10;3.57;;;11.70;99.90;;;;;;799625;179;26418;-81
2024/04/03 09:09:33;;;;;;;11.20;4.13;;;11.90;99.90;;;;;;798954;178;26431;-81
2024/04/03 09:12:01;;;;;;;10.03;3.30;;;12.00;99.90;;;;;;796874;180;26449;-79
2024/04/03 09:14:27;;;;;;;12.00;4.80;;;12.00;99.90;;;;;;797778;180;26459;-79
2024/04/03 09:17:00;;;;;;;13.10;6.43;;;12.00;99.90;;;;;;798295;180;26423;-81
2024/04/03 09:19:26;;;;;;;10.33;5.57;;;11.90;99.90;;;;;;800164;179;26427;-79
2024/04/03 09:21:53;;;;;;;7.47;3.47;;;11.80;99.90;;;;;;800588;177;26458;-80
2024/04/03 09:24:20;;;;;;;5.57;3.90;;;11.80;99.90;;;;;;799798;178;26416;-80
2024/04/03 09:26:47;;;;;;;8.43;3.07;;;11.90;99.90;;;;;;798834;176;26440;-80
2024/04/03 09:29:15;;;;;;;6.13;2.90;;;12.00;99.90;;;;;;797391;177;26413;-79
2024/04/03 09:31:40;;;;;;;6.63;2.87;;;12.00;99.90;;;;;;798386;178;26414;-79
2024/04/03 09:34:07;;;;;;;4.67;2.60;;;11.80;99.90;;;;;;796942;180;26451;-79
2024/04/03 09:36:33;;;;;;;5.60;3.03;;;11.80;99.90;;;;;;795879;180;26423;-80
2024/04/03 09:39:00;;;;;;;4.93;2.47;;;11.70;99.90;;;;;;799509;179;26579;-80
2024/04/03 09:41:27;;;;;;;5.60;2.70;;;11.80;99.90;;;;;;798769;179;26441;-80
2024/04/03 09:43:53;;;;;;;3.83;2.30;;;11.70;99.90;;;;;;797312;180;26611;-79
2024/04/03 09:46:20;;;;;;;6.23;2.37;;;11.70;99.90;;;;;;796887;180;26426;-80
2024/04/03 09:48:47;;;;;;;4.60;2.67;;;11.80;99.90;;;;;;799391;179;26496;-80
2024/04/03 09:51:13;;;;;;;5.13;2.20;;;11.80;99.90;;;;;;798869;178;26420;-80
2024/04/03 09:53:39;;;;;;;5.60;2.37;;;11.80;99.90;;;;;;797861;180;26452;-80
2024/04/03 09:56:06;;;;;;;6.23;2.23;;;11.80;99.90;;;;;;795458;178;26430;-80
2024/04/03 09:58:35;;;;;;;4.77;2.10;;;11.90;99.90;;;;;;800754;179;26429;-80
2024/04/03 10:01:01;;;;;;;3.00;2.30;;;12.00;99.90;;;;;;798504;179;26420;-80
2024/04/03 10:03:28;;;;;;;3.33;2.10;;;12.00;99.90;;;;;;796843;179;26425;-80
2024/04/03 10:06:00;;;;;;;3.83;2.13;;;12.00;99.90;;;;;;796919;178;26415;-81
2024/04/03 10:08:26;;;;;;;3.73;2.47;;;12.00;99.90;;;;;;799305;179;26412;-79
2024/04/03 10:10:53;;;;;;;3.80;2.20;;;12.10;99.90;;;;;;797918;178;26447;-79
2024/04/03 10:13:24;;;;;;;4.53;2.73;;;12.30;99.90;;;;;;798882;177;26439;-80
2024/04/03 10:16:01;;;;;;;6.20;2.93;;;12.40;99.90;;;;;;793556;180;26450;-79
2024/04/03 10:18:29;;;;;;;3.60;2.20;;;12.60;99.90;;;;;;799281;176;26443;-80
2024/04/03 10:20:57;;;;;;;6.00;2.17;;;12.70;99.90;;;;;;795128;178;26739;-80
2024/04/03 10:23:23;;;;;;;17.63;9.87;;;12.60;99.90;;;;;;798684;178;26426;-80
2024/04/03 10:25:49;;;;;;;4.53;2.60;;;12.70;99.90;;;;;;797554;178;26411;-80
2024/04/03 10:28:16;;;;;;;3.80;1.93;;;13.00;99.90;;;;;;799868;178;27610;-79
2024/04/03 10:30:44;;;;;;;2.97;1.83;;;13.10;99.90;;;;;;802576;177;26402;-79
2024/04/03 10:33:09;;;;;;;2.80;1.93;;;13.00;99.90;;;;;;799742;180;26424;-80
2024/04/03 10:35:36;;;;;;;2.13;1.73;;;13.00;99.90;;;;;;796993;179;26433;-80
2024/04/03 10:38:02;;;;;;;4.37;2.17;;;13.00;99.90;;;;;;795535;180;26433;-79
2024/04/03 10:40:30;;;;;;;3.97;2.10;;;12.90;99.90;;;;;;795777;179;26450;-79
2024/04/03 10:42:56;;;;;;;2.87;1.70;;;12.90;99.90;;;;;;795939;179;26508;-79
2024/04/03 10:45:23;;;;;;;10.50;4.43;;;13.10;99.90;;;;;;796096;179;27008;-79
2024/04/03 10:47:49;;;;;;;4.47;2.40;;;13.40;99.90;;;;;;795835;179;26458;-79
2024/04/03 10:50:16;;;;;;;3.87;2.00;;;13.50;99.90;;;;;;795663;179;26460;-79
2024/04/03 10:52:44;;;;;;;11.73;5.23;;;13.60;99.90;;;;;;796360;179;26443;-81
2024/04/03 10:55:10;;;;;;;25.40;12.23;;;13.70;99.90;;;;;;796594;179;26473;-78
2024/04/03 10:57:37;;;;;;;6.57;2.40;;;13.80;99.90;;;;;;796599;179;26460;-83
2024/04/03 11:00:03;;;;;;;10.70;5.97;;;13.70;99.90;;;;;;797740;178;26467;-84
2024/04/03 11:02:29;;;;;;;4.47;2.47;;;13.40;99.90;;;;;;797913;178;26589;-82
2024/04/03 11:04:56;;;;;;;5.30;2.23;;;13.30;99.90;;;;;;796944;179;26423;-81
2024/04/03 11:07:24;;;;;;;1.80;1.37;;;13.40;99.90;;;;;;796714;179;26447;-79
2024/04/03 11:09:50;;;;;;;93.73;39.80;;;13.20;99.90;;;;;;797934;178;26431;-80
2024/04/03 11:12:16;;;;;;;2.90;1.70;;;13.10;99.90;;;;;;785188;180;26442;-80
2024/04/03 11:14:43;;;;;;;2.13;1.60;;;13.10;99.90;;;;;;800991;179;26426;-79
2024/04/03 11:17:09;;;;;;;10.50;5.00;;;13.00;99.90;;;;;;795214;179;26419;-81
2024/04/03 11:19:36;;;;;;;29.33;14.10;;;13.10;99.90;;;;;;799619;179;26419;-81
2024/04/03 11:22:03;;;;;;;4.73;2.83;;;13.10;99.90;;;;;;798811;180;26450;-81
2024/04/03 11:24:29;;;;;;;6.03;3.33;;;13.10;99.90;;;;;;798565;179;26500;-80
2024/04/03 11:26:56;;;;;;;2.93;1.90;;;13.10;99.90;;;;;;798159;180;26436;-81
2024/04/03 11:29:27;;;;;;;1.90;1.23;;;13.20;99.90;;;;;;798846;180;26444;-80
2024/04/03 11:31:54;;;;;;;3.77;2.30;;;13.30;99.90;;;;;;799307;179;26422;-80
2024/04/03 11:34:20;;;;;;;2.07;1.50;;;13.30;99.90;;;;;;798113;179;26469;-80
2024/04/03 11:36:47;;;;;;;3.63;2.40;;;13.30;99.90;;;;;;797363;179;26460;-81
2024/04/03 11:39:17;;;;;;;80.13;35.43;;;13.30;99.90;;;;;;797940;180;26441;-80
2024/04/03 11:41:44;;;;;;;3.80;2.70;;;13.40;99.90;;;;;;801835;177;26426;-80
2024/04/03 11:44:10;;;;;;;6.77;4.50;;;13.40;99.90;;;;;;802645;179;27066;-80
2024/04/03 11:46:37;;;;;;;7.23;4.60;;;13.30;99.90;;;;;;796169;180;26449;-80
2024/04/03 11:49:04;;;;;;;2.30;1.60;;;13.20;99.90;;;;;;800094;180;26414;-80
2024/04/03 11:51:30;;;;;;;2.57;1.93;;;13.20;99.90;;;;;;799840;180;26415;-79
2024/04/03 11:53:57;;;;;;;1.63;1.40;;;13.20;99.90;;;;;;797008;180;26477;-80
2024/04/03 11:56:23;;;;;;;3.03;2.03;;;13.20;99.90;;;;;;797870;180;26458;-81
2024/04/03 11:58:51;;;;;;;4.60;1.70;;;13.20;99.90;;;;;;799637;180;26432;-78
2024/04/03 12:01:18;;;;;;;4.60;2.10;;;13.20;99.90;;;;;;796199;180;27021;-79
2024/04/03 12:03:45;;;;;;;2.53;1.50;;;13.20;99.90;;;;;;793982;180;26449;-80
2024/04/03 12:06:11;;;;;;;4.03;1.80;;;13.20;99.90;;;;;;798932;180;26476;-81
2024/04/03 12:08:38;;;;;;;2.00;1.67;;;13.20;99.90;;;;;;797842;180;26427;-80
2024/04/03 12:11:06;;;;;;;3.23;1.60;;;13.20;99.90;;;;;;794986;180;26432;-80
2024/04/03 12:13:31;;;;;;;4.17;2.20;;;13.10;99.90;;;;;;795158;180;26456;-81
2024/04/03 12:16:00;;;;;;;3.30;2.00;;;13.20;99.90;;;;;;794148;180;26423;-81
2024/04/03 12:18:37;;;;;;;5.60;2.30;;;13.30;99.90;;;;;;796427;180;26505;-81
2024/04/03 12:20:53;;;;;;;13.83;6.63;;;13.30;99.90;;;;;;797729;179;26427;-80
2024/04/03 12:23:20;;;;;;;2.20;1.70;;;13.30;99.90;;;;;;795334;180;26465;-80
2024/04/03 12:25:46;;;;;;;6.13;1.87;;;13.30;99.90;;;;;;797580;180;26471;-81
2024/04/03 12:28:13;;;;;;;4.77;1.90;;;13.10;99.90;;;;;;795090;180;26443;-80
2024/04/03 12:30:40;;;;;;;2.67;2.00;;;13.10;99.90;;;;;;798659;179;26442;-80
2024/04/03 12:33:06;;;;;;;2.10;1.80;;;13.20;99.90;;;;;;798058;179;26459;-80
2024/04/03 12:35:33;;;;;;;2.37;1.57;;;13.20;99.90;;;;;;799601;179;26427;-81
2024/04/03 12:37:59;;;;;;;3.10;2.00;;;13.30;99.90;;;;;;795586;179;26456;-80
2024/04/03 12:40:26;;;;;;;5.93;2.57;;;13.30;99.90;;;;;;796917;180;26435;-80
2024/04/03 12:42:53;;;;;;;5.17;3.20;;;13.30;99.90;;;;;;796047;180;26484;-79